Current Weather

Tokyo Intl

Tokyo Intl, Japan (RJTT)

Report from: Monday, February 6, 2023 2:30 PM JST
Current time: Monday, February 6, 2023 3:12 PM JST

Nearby weather
Weather history
Weather forecast

Temperature11.0°C (51.8°F)
Dew point0.0°C (32.0°F)
Winds 5 kts (2.6 m/s, 5.8 mph) Vrb
Winds variableWinds variable from Southeast (130°) to South-Southwest (210°)
Clouds Sky clear
Altimeter30.06 in.Hg (1018 mB)
Relative humidity47 %
Density altitude-544 ft. (-166 m)
Remarks Ceiling and visibility OK
No significant changes expected in the next two hours
Flight conditions Visual Meteorological Conditions
Raw dataRJTT 060530Z 17005KT 130V210 CAVOK 11/00 Q1018 NOSIG
An error has occurred. This application may no longer respond until reloaded. Reload 🗙